createdAt,value
2022-09-12T00:01:52.191Z,11.31
2022-09-12T00:04:19.135Z,11.27
2022-09-12T00:06:46.185Z,11.22
2022-09-12T00:09:14.315Z,11.21
2022-09-12T00:11:43.841Z,11.20
2022-09-12T00:14:15.498Z,11.17
2022-09-12T00:16:43.328Z,11.13
2022-09-12T00:19:10.798Z,11.14
2022-09-12T00:21:39.309Z,11.16
2022-09-12T00:24:06.571Z,11.14
2022-09-12T00:26:33.877Z,11.08
2022-09-12T00:29:00.913Z,11.13
2022-09-12T00:31:28.512Z,11.06
2022-09-12T00:33:57.975Z,11.05
2022-09-12T00:36:26.221Z,11.05
2022-09-12T00:38:54.759Z,11.00
2022-09-12T00:41:25.802Z,11.03
2022-09-12T00:43:56.060Z,10.99
2022-09-12T00:46:47.560Z,11.00
2022-09-12T00:49:23.253Z,11.03
2022-09-12T00:51:57.609Z,11.04
2022-09-12T00:54:30.333Z,11.02
2022-09-12T00:57:01.698Z,10.98
2022-09-12T00:59:44.447Z,11.00
2022-09-12T01:02:11.902Z,10.99
2022-09-12T01:04:41.203Z,10.97
2022-09-12T01:07:08.815Z,10.94
2022-09-12T01:09:38.016Z,10.89
2022-09-12T01:12:06.124Z,10.92
2022-09-12T01:14:32.951Z,10.93
2022-09-12T01:16:59.919Z,10.92
2022-09-12T01:19:32.961Z,10.91
2022-09-12T01:22:27.746Z,10.90
2022-09-12T01:25:16.057Z,10.89
2022-09-12T01:28:10.549Z,10.90
2022-09-12T01:30:45.682Z,10.88
2022-09-12T01:33:30.903Z,10.90
2022-09-12T01:36:03.847Z,10.86
2022-09-12T01:38:38.360Z,10.84
2022-09-12T01:41:20.117Z,10.80
2022-09-12T01:44:09.758Z,10.72
2022-09-12T01:46:49.329Z,10.67
2022-09-12T01:49:19.961Z,10.64
2022-09-12T01:52:03.095Z,10.58
2022-09-12T01:54:40.477Z,10.54
2022-09-12T01:57:25.721Z,10.53
2022-09-12T01:59:58.718Z,10.56
2022-09-12T02:02:33.125Z,10.54
2022-09-12T02:05:15.129Z,10.53
2022-09-12T02:07:49.947Z,10.55
2022-09-12T02:10:24.042Z,10.57
2022-09-12T02:12:59.738Z,10.60
2022-09-12T02:15:56.009Z,10.59
2022-09-12T02:18:27.361Z,10.64
2022-09-12T02:20:56.418Z,10.63
2022-09-12T02:23:27.826Z,10.58
2022-09-12T02:26:17.199Z,10.60
2022-09-12T02:28:44.103Z,10.61
2022-09-12T02:31:23.253Z,10.64
2022-09-12T02:34:09.113Z,10.58
2022-09-12T02:36:46.702Z,10.59
2022-09-12T02:39:13.675Z,10.61
2022-09-12T02:41:40.732Z,10.63
2022-09-12T02:44:07.604Z,10.62
2022-09-12T02:46:42.768Z,10.60
2022-09-12T02:49:10.651Z,10.55
2022-09-12T02:51:38.577Z,10.56
2022-09-12T02:54:07.565Z,10.55
2022-09-12T02:56:35.069Z,10.55
2022-09-12T02:59:14.898Z,10.51
2022-09-12T03:02:02.626Z,10.45
2022-09-12T03:04:47.952Z,10.44
2022-09-12T03:07:46.206Z,10.43
2022-09-12T03:10:15.920Z,10.43
2022-09-12T03:13:07.405Z,10.42
2022-09-12T03:15:34.239Z,10.45
2022-09-12T03:18:28.623Z,10.44
2022-09-12T03:21:13.933Z,10.44
2022-09-12T03:23:51.626Z,10.43
2022-09-12T03:26:37.152Z,10.42
2022-09-12T03:29:07.839Z,10.46
2022-09-12T03:31:34.841Z,10.46
2022-09-12T03:34:01.784Z,10.44
2022-09-12T03:36:30.103Z,10.42
2022-09-12T03:38:56.986Z,10.40
2022-09-12T03:41:24.140Z,10.40
2022-09-12T03:43:51.491Z,10.42
2022-09-12T03:46:18.423Z,10.45
2022-09-12T03:48:45.377Z,10.48
2022-09-12T03:51:12.650Z,10.49
2022-09-12T03:53:39.629Z,10.46
2022-09-12T03:56:10.891Z,10.45
2022-09-12T03:58:38.757Z,10.45
2022-09-12T04:01:14.406Z,10.44
2022-09-12T04:03:43.454Z,10.47
2022-09-12T04:06:11.808Z,10.43
2022-09-12T04:08:38.899Z,10.39
2022-09-12T04:11:14.175Z,10.37
2022-09-12T04:13:43.665Z,10.39
2022-09-12T04:16:11.895Z,10.42
2022-09-12T04:18:39.081Z,10.39
2022-09-12T04:21:07.915Z,10.42
2022-09-12T04:23:35.730Z,10.42
2022-09-12T04:26:06.518Z,10.36
2022-09-12T04:28:35.145Z,10.39
2022-09-12T04:31:05.057Z,10.36
2022-09-12T04:33:32.122Z,10.33
2022-09-12T04:36:07.041Z,10.32
2022-09-12T04:38:35.375Z,10.31
2022-09-12T04:41:11.276Z,10.28
2022-09-12T04:43:38.274Z,10.30
2022-09-12T04:46:09.083Z,10.33
2022-09-12T04:48:36.051Z,10.38
2022-09-12T04:51:12.153Z,10.39
2022-09-12T04:53:39.809Z,10.37
2022-09-12T04:56:09.825Z,10.36
2022-09-12T04:58:38.711Z,10.38
2022-09-12T05:01:06.148Z,10.42
2022-09-12T05:03:34.350Z,10.42
2022-09-12T05:06:05.251Z,10.44
2022-09-12T05:08:33.160Z,10.43
2022-09-12T05:11:08.256Z,10.38
2022-09-12T05:13:35.212Z,10.43
2022-09-12T05:16:03.838Z,10.44
2022-09-12T05:18:35.728Z,10.51
2022-09-12T05:21:05.624Z,10.53
2022-09-12T05:23:34.041Z,10.52
2022-09-12T05:26:01.622Z,10.58
2022-09-12T05:28:36.737Z,10.61
2022-09-12T05:31:12.407Z,10.67
2022-09-12T05:33:41.434Z,10.70
2022-09-12T05:36:12.525Z,10.65
2022-09-12T05:38:39.732Z,10.64
2022-09-12T05:41:16.639Z,10.62
2022-09-12T05:43:46.194Z,10.59
2022-09-12T05:46:18.947Z,10.53
2022-09-12T05:48:47.577Z,10.55
2022-09-12T05:51:20.562Z,10.58
2022-09-12T05:53:52.874Z,10.54
2022-09-12T05:56:23.375Z,10.56
2022-09-12T05:58:57.702Z,10.56
2022-09-12T06:01:27.303Z,10.61
2022-09-12T06:03:55.449Z,10.59
2022-09-12T06:06:24.527Z,10.58
2022-09-12T06:08:53.824Z,10.60
2022-09-12T06:11:23.294Z,10.55
2022-09-12T06:13:52.993Z,10.54
2022-09-12T06:16:22.915Z,10.57
2022-09-12T06:18:52.434Z,10.64
2022-09-12T06:21:20.608Z,10.70
2022-09-12T06:23:48.221Z,10.69
2022-09-12T06:26:17.556Z,10.71
2022-09-12T06:28:45.722Z,10.74
2022-09-12T06:31:18.595Z,10.77
2022-09-12T06:33:49.269Z,10.75
2022-09-12T06:36:22.254Z,10.74
2022-09-12T06:39:03.829Z,10.72
2022-09-12T06:41:32.033Z,10.72
2022-09-12T06:44:00.418Z,10.74
2022-09-12T06:46:27.876Z,10.77
2022-09-12T06:48:59.675Z,10.78
2022-09-12T06:51:28.269Z,10.79
2022-09-12T06:53:57.234Z,10.75
2022-09-12T06:56:26.636Z,10.72
2022-09-12T06:58:56.393Z,10.72
2022-09-12T07:01:27.098Z,10.66
2022-09-12T07:03:57.054Z,10.67
2022-09-12T07:06:31.741Z,10.70
2022-09-12T07:08:59.862Z,10.67
2022-09-12T07:11:31.719Z,10.71
2022-09-12T07:14:00.103Z,10.72
2022-09-12T07:16:27.517Z,10.68
2022-09-12T07:18:59.832Z,10.58
2022-09-12T07:21:27.824Z,10.59
2022-09-12T07:24:00.741Z,10.59
2022-09-12T07:26:29.200Z,10.56
2022-09-12T07:29:18.610Z,10.54
2022-09-12T07:31:45.476Z,10.55
2022-09-12T07:34:13.005Z,10.61
2022-09-12T07:36:39.915Z,10.64
2022-09-12T07:39:06.943Z,10.63
2022-09-12T07:41:34.174Z,10.58
2022-09-12T07:44:03.310Z,10.61
2022-09-12T07:46:31.713Z,10.61
2022-09-12T07:49:01.152Z,10.64
2022-09-12T07:51:30.021Z,10.58
2022-09-12T07:53:57.723Z,10.59
2022-09-12T07:56:30.134Z,10.58
2022-09-12T07:58:59.069Z,10.60
2022-09-12T08:01:26.636Z,10.67
2022-09-12T08:03:57.278Z,10.74
2022-09-12T08:06:25.023Z,10.80
2022-09-12T08:08:54.243Z,10.87
2022-09-12T08:11:23.076Z,10.90
2022-09-12T08:13:55.212Z,10.84
2022-09-12T08:16:25.675Z,10.86
2022-09-12T08:18:52.711Z,10.92
2022-09-12T08:21:27.215Z,10.93
2022-09-12T08:23:57.314Z,10.93
2022-09-12T08:26:24.882Z,10.93
2022-09-12T08:28:52.690Z,10.96
2022-09-12T08:31:21.945Z,10.94
2022-09-12T08:33:49.075Z,10.91
2022-09-12T08:36:22.600Z,10.89
2022-09-12T08:38:53.641Z,10.88
2022-09-12T08:41:35.201Z,10.86
2022-09-12T08:44:20.126Z,10.87
2022-09-12T08:47:05.615Z,10.90
2022-09-12T08:49:36.913Z,10.89
2022-09-12T08:52:14.430Z,10.90
2022-09-12T08:54:44.963Z,10.90
2022-09-12T08:57:13.030Z,10.89
2022-09-12T08:59:42.898Z,10.94
2022-09-12T09:02:31.643Z,10.98
2022-09-12T09:05:37.517Z,11.10
2022-09-12T09:08:05.044Z,11.16
2022-09-12T09:10:47.401Z,11.19
2022-09-12T09:13:43.087Z,11.21
2022-09-12T09:16:19.829Z,11.23
2022-09-12T09:18:48.547Z,11.27
2022-09-12T09:21:26.746Z,11.27
2022-09-12T09:24:02.460Z,11.29
2022-09-12T09:26:38.241Z,11.32
2022-09-12T09:29:22.755Z,11.32
2022-09-12T09:31:53.199Z,11.35
2022-09-12T09:34:30.009Z,11.28
2022-09-12T09:37:13.908Z,11.29
2022-09-12T09:39:48.715Z,11.24
2022-09-12T09:42:24.755Z,11.21
2022-09-12T09:44:56.005Z,11.22
2022-09-12T09:47:22.882Z,11.23
2022-09-12T09:49:49.716Z,11.29
2022-09-12T09:52:22.529Z,11.19
2022-09-12T09:54:59.866Z,11.25
2022-09-12T09:57:38.618Z,11.33
2022-09-12T10:00:22.240Z,11.38
2022-09-12T10:03:05.385Z,11.43
2022-09-12T10:05:35.997Z,11.50
2022-09-12T10:08:05.165Z,11.54
2022-09-12T10:10:31.939Z,11.59
2022-09-12T10:13:24.848Z,11.59
2022-09-12T10:16:03.961Z,11.58
2022-09-12T10:18:34.859Z,11.59
2022-09-12T10:21:03.666Z,11.51
2022-09-12T10:23:37.155Z,11.46
2022-09-12T10:26:10.770Z,11.41
2022-09-12T10:28:40.675Z,11.43
2022-09-12T10:31:10.605Z,11.41
2022-09-12T10:33:45.441Z,11.49
2022-09-12T10:36:13.491Z,11.61
2022-09-12T10:38:49.669Z,11.68
2022-09-12T10:41:17.033Z,11.77
2022-09-12T10:43:44.045Z,11.85
2022-09-12T10:46:19.690Z,11.89
2022-09-12T10:48:48.577Z,11.96
2022-09-12T10:51:28.484Z,11.90
2022-09-12T10:54:02.141Z,11.93
2022-09-12T10:56:32.769Z,11.85
2022-09-12T10:59:27.341Z,11.81
2022-09-12T11:02:01.293Z,11.78
2022-09-12T11:04:53.401Z,11.74
2022-09-12T11:07:40.830Z,11.73
2022-09-12T11:10:28.117Z,11.70
2022-09-12T11:13:09.367Z,11.72
2022-09-12T11:16:07.475Z,11.70
2022-09-12T11:18:58.138Z,11.77
2022-09-12T11:21:34.049Z,11.81
2022-09-12T11:24:09.667Z,11.82
2022-09-12T11:27:13.615Z,11.82
2022-09-12T11:29:52.830Z,11.83
2022-09-12T11:32:28.628Z,11.86
2022-09-12T11:34:55.954Z,11.96
2022-09-12T11:37:41.260Z,12.04
2022-09-12T11:40:20.543Z,12.11
2022-09-12T11:42:52.018Z,12.20
2022-09-12T11:45:25.543Z,12.22
2022-09-12T11:47:57.876Z,12.21
2022-09-12T11:50:31.034Z,12.22
2022-09-12T11:53:05.236Z,12.31
2022-09-12T11:55:51.416Z,12.31
2022-09-12T11:58:23.443Z,12.36
2022-09-12T12:00:55.203Z,12.38
2022-09-12T12:03:41.987Z,12.42
2022-09-12T12:06:32.055Z,12.44
2022-09-12T12:08:59.382Z,12.43
2022-09-12T12:11:36.806Z,12.42
2022-09-12T12:14:20.799Z,12.48
2022-09-12T12:16:48.771Z,12.56
2022-09-12T12:19:15.775Z,12.62
2022-09-12T12:21:45.037Z,12.76
2022-09-12T12:24:15.480Z,12.85
2022-09-12T12:27:04.707Z,12.96
2022-09-12T12:29:31.746Z,13.01
2022-09-12T12:31:59.141Z,13.08
2022-09-12T12:34:30.118Z,13.19
2022-09-12T12:52:46.833Z,13.02
2022-09-12T12:55:26.490Z,12.85
2022-09-12T12:57:54.987Z,12.66
2022-09-12T13:00:25.365Z,12.60
2022-09-12T13:03:31.865Z,12.53
2022-09-12T13:06:05.717Z,12.57
2022-09-12T13:08:35.484Z,12.62
2022-09-12T13:11:14.254Z,12.69
2022-09-12T13:13:53.440Z,12.68
2022-09-12T13:16:35.741Z,12.72
2022-09-12T13:19:06.513Z,12.74
2022-09-12T13:21:33.967Z,12.67
2022-09-12T13:24:13.066Z,12.62
2022-09-12T13:26:44.303Z,12.45
2022-09-12T13:29:11.069Z,12.44
2022-09-12T13:31:38.526Z,12.46
2022-09-12T13:34:07.363Z,12.44
2022-09-12T13:37:08.589Z,12.42
2022-09-12T13:39:49.898Z,12.44
2022-09-12T13:42:34.592Z,12.42
2022-09-12T13:45:04.875Z,12.43
2022-09-12T13:47:36.702Z,12.42
2022-09-12T13:50:06.069Z,12.41
2022-09-12T13:52:36.090Z,12.42
2022-09-12T13:55:09.142Z,12.40
2022-09-12T13:57:39.129Z,12.38
2022-09-12T14:00:24.475Z,12.37
2022-09-12T14:03:14.775Z,12.38
2022-09-12T14:05:45.107Z,12.30
2022-09-12T14:08:15.409Z,12.25
2022-09-12T14:10:45.107Z,12.22
2022-09-12T14:13:16.962Z,12.18
2022-09-12T14:15:47.203Z,12.15
2022-09-12T14:18:39.153Z,12.12
2022-09-12T14:21:12.875Z,12.05
2022-09-12T14:23:45.386Z,12.02
2022-09-12T14:26:13.967Z,12.01
2022-09-12T14:28:47.513Z,11.98
2022-09-12T14:31:15.784Z,11.97
2022-09-12T14:33:51.176Z,11.97
2022-09-12T14:36:27.387Z,11.95
2022-09-12T14:38:59.349Z,11.93
2022-09-12T14:41:31.052Z,11.91
2022-09-12T14:44:05.191Z,11.91
2022-09-12T14:46:34.558Z,11.93
2022-09-12T14:49:12.471Z,11.96
2022-09-12T14:52:01.024Z,12.03
2022-09-12T14:54:30.396Z,12.07
2022-09-12T14:57:04.351Z,12.12
2022-09-12T14:59:39.793Z,12.14
2022-09-12T15:02:24.763Z,12.15
2022-09-12T15:04:54.620Z,12.16
2022-09-12T15:07:29.885Z,12.19
2022-09-12T15:09:59.232Z,12.19
2022-09-12T15:12:26.444Z,12.22
2022-09-12T15:14:58.512Z,12.25
2022-09-12T15:17:25.302Z,12.25
2022-09-12T15:19:52.373Z,12.22
2022-09-12T15:22:21.676Z,12.20
2022-09-12T15:24:48.750Z,12.15
2022-09-12T15:27:15.897Z,12.13
2022-09-12T15:29:42.798Z,12.09
2022-09-12T15:32:22.756Z,12.03
2022-09-12T15:34:50.094Z,11.97
2022-09-12T15:37:17.889Z,11.93
2022-09-12T15:39:46.764Z,11.86
2022-09-12T15:42:15.489Z,11.76
2022-09-12T15:44:42.896Z,11.72
2022-09-12T15:47:13.622Z,11.69
2022-09-12T15:49:41.107Z,11.69
2022-09-12T15:52:13.973Z,11.67
2022-09-12T15:54:41.258Z,11.67
2022-09-12T15:57:08.491Z,11.63
2022-09-12T15:59:36.350Z,11.62
2022-09-12T16:02:03.740Z,11.59
2022-09-12T16:04:31.795Z,11.58
2022-09-12T16:06:58.838Z,11.56
2022-09-12T16:09:25.991Z,11.57
2022-09-12T16:11:52.984Z,11.55
2022-09-12T16:14:20.172Z,11.55
2022-09-12T16:16:54.600Z,11.54
2022-09-12T16:19:22.249Z,11.55
2022-09-12T16:21:49.656Z,11.55
2022-09-12T16:24:16.652Z,11.55
2022-09-12T16:26:43.574Z,11.55
2022-09-12T16:29:14.010Z,11.56
2022-09-12T16:31:40.937Z,11.57
2022-09-12T16:34:07.877Z,11.55
2022-09-12T16:36:34.919Z,11.56
2022-09-12T16:39:01.806Z,11.55
2022-09-12T16:41:28.938Z,11.56
2022-09-12T16:43:56.096Z,11.55
2022-09-12T16:46:31.157Z,11.53
2022-09-12T16:48:58.905Z,11.52
2022-09-12T16:51:28.696Z,11.51
2022-09-12T16:53:56.229Z,11.48
2022-09-12T16:56:23.917Z,11.49
2022-09-12T16:58:50.993Z,11.46
2022-09-12T17:01:21.421Z,11.41
2022-09-12T17:03:48.926Z,11.38
2022-09-12T17:06:18.418Z,11.38
2022-09-12T17:08:50.656Z,11.37
2022-09-12T17:11:23.822Z,11.36
2022-09-12T17:14:11.341Z,11.36
2022-09-12T17:16:48.021Z,11.33
2022-09-12T17:19:26.405Z,11.32
2022-09-12T17:21:54.519Z,11.34
2022-09-12T17:24:21.961Z,11.31
2022-09-12T17:26:49.490Z,11.32
2022-09-12T17:29:17.147Z,11.33
2022-09-12T17:31:44.843Z,11.31
2022-09-12T17:34:16.421Z,11.34
2022-09-12T17:36:45.252Z,11.36
2022-09-12T17:39:13.788Z,11.36
2022-09-12T17:41:46.097Z,11.37
2022-09-12T17:44:15.228Z,11.38
2022-09-12T17:46:43.664Z,11.39
2022-09-12T17:49:16.877Z,11.41
2022-09-12T17:51:44.390Z,11.42
2022-09-12T17:54:16.226Z,11.44
2022-09-12T17:56:45.577Z,11.46
2022-09-12T17:59:21.517Z,11.43
2022-09-12T18:02:07.386Z,11.42
2022-09-12T18:04:34.698Z,11.42
2022-09-12T18:07:01.842Z,11.43
2022-09-12T18:09:29.335Z,11.45
2022-09-12T18:11:56.736Z,11.44
2022-09-12T18:14:24.852Z,11.42
2022-09-12T18:16:52.468Z,11.40
2022-09-12T18:19:19.822Z,11.38
2022-09-12T18:21:46.902Z,11.40
2022-09-12T18:24:13.915Z,11.38
2022-09-12T18:26:42.827Z,11.36
2022-09-12T18:29:10.361Z,11.34
2022-09-12T18:31:37.408Z,11.33
2022-09-12T18:34:06.017Z,11.33
2022-09-12T18:36:33.087Z,11.34
2022-09-12T18:39:00.151Z,11.35
2022-09-12T18:41:28.991Z,11.33
2022-09-12T18:44:00.533Z,11.32
2022-09-12T18:46:29.866Z,11.34
2022-09-12T18:48:58.120Z,11.32
2022-09-12T18:51:31.441Z,11.29
2022-09-12T18:54:01.353Z,11.31
2022-09-12T18:56:34.403Z,11.31
2022-09-12T18:59:02.928Z,11.30
2022-09-12T19:01:32.772Z,11.30
2022-09-12T19:04:01.147Z,11.30
2022-09-12T19:06:30.901Z,11.27
2022-09-12T19:09:00.203Z,11.29
2022-09-12T19:11:29.936Z,11.29
2022-09-12T19:13:58.120Z,11.29
2022-09-12T19:16:27.059Z,11.29
2022-09-12T19:18:57.693Z,11.30
2022-09-12T19:21:27.130Z,11.33
2022-09-12T19:23:58.693Z,11.31
2022-09-12T19:26:26.147Z,11.31
2022-09-12T19:28:53.879Z,11.32
2022-09-12T19:31:21.940Z,11.35
2022-09-12T19:33:49.973Z,11.35
2022-09-12T19:36:41.351Z,11.36
2022-09-12T19:39:08.290Z,11.35
2022-09-12T19:41:35.948Z,11.33
2022-09-12T19:44:04.191Z,11.34
2022-09-12T19:46:31.620Z,11.34
2022-09-12T19:48:58.493Z,11.34
2022-09-12T19:51:25.532Z,11.36
2022-09-12T19:53:53.292Z,11.36
2022-09-12T19:56:20.666Z,11.37
2022-09-12T19:58:52.281Z,11.38
2022-09-12T20:01:25.678Z,11.37
2022-09-12T20:03:53.955Z,11.36
2022-09-12T20:06:21.328Z,11.37
2022-09-12T20:08:48.763Z,11.37
2022-09-12T20:11:18.199Z,11.39
2022-09-12T20:13:46.046Z,11.40
2022-09-12T20:16:20.335Z,11.42
2022-09-12T20:18:49.516Z,11.43
2022-09-12T20:21:19.287Z,11.44
2022-09-12T20:23:46.984Z,11.44
2022-09-12T20:26:13.892Z,11.41
2022-09-12T20:28:42.100Z,11.40
2022-09-12T20:31:13.989Z,11.38
2022-09-12T20:33:41.534Z,11.38
2022-09-12T20:36:17.797Z,11.37
2022-09-12T20:38:49.697Z,11.36
2022-09-12T20:41:18.860Z,11.36
2022-09-12T20:43:49.192Z,11.32
2022-09-12T20:46:20.987Z,11.31
2022-09-12T20:48:49.472Z,11.29
2022-09-12T20:51:16.871Z,11.30
2022-09-12T20:53:43.846Z,11.28
2022-09-12T20:56:11.070Z,11.27
2022-09-12T20:58:43.066Z,11.25
2022-09-12T21:01:12.329Z,11.29
2022-09-12T21:03:40.204Z,11.29
2022-09-12T21:06:08.970Z,11.30
2022-09-12T21:08:37.270Z,11.33
2022-09-12T21:11:05.611Z,11.30
2022-09-12T21:13:32.952Z,11.31
2022-09-12T21:16:04.815Z,11.33
2022-09-12T21:18:32.698Z,11.33
2022-09-12T21:20:59.637Z,11.34
2022-09-12T21:23:28.463Z,11.35
2022-09-12T21:25:55.322Z,11.35
2022-09-12T21:28:22.373Z,11.32
2022-09-12T21:30:50.431Z,11.36
2022-09-12T21:33:18.993Z,11.35
2022-09-12T21:35:47.378Z,11.36
2022-09-12T21:38:18.649Z,11.37
2022-09-12T21:40:46.400Z,11.37
2022-09-12T21:43:14.134Z,11.33
2022-09-12T21:45:41.269Z,11.32
2022-09-12T21:48:08.065Z,11.34
2022-09-12T21:50:35.204Z,11.34
2022-09-12T21:53:02.388Z,11.35
2022-09-12T21:55:29.269Z,11.34
2022-09-12T21:57:56.293Z,11.33
2022-09-12T22:00:24.000Z,11.33
2022-09-12T22:02:51.068Z,11.36
2022-09-12T22:05:24.744Z,11.34
2022-09-12T22:07:52.340Z,11.35
2022-09-12T22:10:19.165Z,11.36
2022-09-12T22:12:46.520Z,11.35
2022-09-12T22:15:38.776Z,11.35
2022-09-12T22:18:01.021Z,11.37
2022-09-12T22:20:28.222Z,11.35
2022-09-12T22:23:13.583Z,11.35
2022-09-12T22:25:40.730Z,11.35
2022-09-12T22:28:07.690Z,11.35
2022-09-12T22:30:34.484Z,11.32
2022-09-12T22:33:01.700Z,11.33
2022-09-12T22:35:28.587Z,11.30
2022-09-12T22:37:55.754Z,11.29
2022-09-12T22:40:22.643Z,11.27
2022-09-12T22:42:52.659Z,11.28
2022-09-12T22:45:20.085Z,11.29
2022-09-12T22:47:47.285Z,11.30
2022-09-12T22:50:14.723Z,11.30
2022-09-12T22:52:41.982Z,11.30
2022-09-12T22:55:09.871Z,11.33
2022-09-12T22:57:37.465Z,11.29
2022-09-12T23:00:08.134Z,11.30
2022-09-12T23:02:35.322Z,11.31
2022-09-12T23:05:02.817Z,11.30
2022-09-12T23:07:29.961Z,11.31
2022-09-12T23:09:57.045Z,11.29
2022-09-12T23:12:24.322Z,11.29
2022-09-12T23:14:51.214Z,11.27
2022-09-12T23:17:18.329Z,11.22
2022-09-12T23:19:45.568Z,11.21
2022-09-12T23:22:12.549Z,11.22
2022-09-12T23:24:39.607Z,11.20
2022-09-12T23:27:06.516Z,11.18
2022-09-12T23:29:35.437Z,11.14
2022-09-12T23:32:04.366Z,11.12
2022-09-12T23:34:31.180Z,11.09
2022-09-12T23:36:57.984Z,11.06
2022-09-12T23:39:25.582Z,11.07
2022-09-12T23:41:52.484Z,11.06
2022-09-12T23:44:19.271Z,11.05
2022-09-12T23:46:46.355Z,11.02
2022-09-12T23:49:13.241Z,11.01
2022-09-12T23:51:40.158Z,11.02
2022-09-12T23:54:07.238Z,10.99
2022-09-12T23:56:34.359Z,10.99
2022-09-12T23:59:01.219Z,10.98
